sensor_id;sensor_type;location;lat;lon;timestamp;pressure;altitude;pressure_sealevel;temperature;humidity
13434;BME280;6789;47.678;9.158;2022-09-01T00:02:29;96922.44;;;15.46;100.00
13434;BME280;6789;47.678;9.158;2022-09-01T00:07:21;96920.69;;;15.57;100.00
13434;BME280;6789;47.678;9.158;2022-09-01T00:12:28;96918.09;;;15.62;100.00
13434;BME280;6789;47.678;9.158;2022-09-01T00:17:36;96918.38;;;15.65;100.00
13434;BME280;6789;47.678;9.158;2022-09-01T00:22:44;96928.97;;;15.65;100.00
13434;BME280;6789;47.678;9.158;2022-09-01T00:27:50;96929.63;;;15.51;100.00
13434;BME280;6789;47.678;9.158;2022-09-01T00:32:58;96926.88;;;15.41;100.00
13434;BME280;6789;47.678;9.158;2022-09-01T00:37:50;96921.28;;;15.37;100.00
13434;BME280;6789;47.678;9.158;2022-09-01T00:42:45;96919.41;;;15.33;100.00
13434;BME280;6789;47.678;9.158;2022-09-01T00:47:37;96919.88;;;15.30;100.00
13434;BME280;6789;47.678;9.158;2022-09-01T00:52:38;96919.88;;;15.30;100.00
13434;BME280;6789;47.678;9.158;2022-09-01T00:57:32;96922.78;;;15.28;100.00
13434;BME280;6789;47.678;9.158;2022-09-01T01:02:24;96921.91;;;15.23;100.00
13434;BME280;6789;47.678;9.158;2022-09-01T01:07:18;96927.69;;;15.20;100.00
13434;BME280;6789;47.678;9.158;2022-09-01T01:12:13;96932.69;;;15.21;100.00
13434;BME280;6789;47.678;9.158;2022-09-01T01:17:09;96927.19;;;15.23;100.00
13434;BME280;6789;47.678;9.158;2022-09-01T01:22:01;96939.50;;;15.34;100.00
13434;BME280;6789;47.678;9.158;2022-09-01T01:27:11;96924.69;;;15.33;100.00
13434;BME280;6789;47.678;9.158;2022-09-01T01:32:04;96916.72;;;15.28;100.00
13434;BME280;6789;47.678;9.158;2022-09-01T01:37:03;96918.78;;;15.26;100.00
13434;BME280;6789;47.678;9.158;2022-09-01T01:41:56;96917.19;;;15.25;100.00
13434;BME280;6789;47.678;9.158;2022-09-01T01:46:51;96925.38;;;15.23;100.00
13434;BME280;6789;47.678;9.158;2022-09-01T01:51:44;96922.94;;;15.22;100.00
13434;BME280;6789;47.678;9.158;2022-09-01T01:56:38;96925.50;;;15.17;100.00
13434;BME280;6789;47.678;9.158;2022-09-01T02:01:46;96921.03;;;15.17;100.00
13434;BME280;6789;47.678;9.158;2022-09-01T02:06:43;96930.19;;;15.10;100.00
13434;BME280;6789;47.678;9.158;2022-09-01T02:11:39;96930.78;;;15.17;100.00
13434;BME280;6789;47.678;9.158;2022-09-01T02:16:33;96926.50;;;15.11;100.00
13434;BME280;6789;47.678;9.158;2022-09-01T02:21:27;96917.06;;;15.15;100.00
13434;BME280;6789;47.678;9.158;2022-09-01T02:26:18;96915.47;;;15.14;100.00
13434;BME280;6789;47.678;9.158;2022-09-01T02:31:13;96923.78;;;15.22;100.00
13434;BME280;6789;47.678;9.158;2022-09-01T02:36:16;96916.84;;;15.21;100.00
13434;BME280;6789;47.678;9.158;2022-09-01T02:41:08;96903.91;;;15.20;100.00
13434;BME280;6789;47.678;9.158;2022-09-01T02:46:14;96907.78;;;15.12;100.00
13434;BME280;6789;47.678;9.158;2022-09-01T02:51:23;96909.66;;;15.17;100.00
13434;BME280;6789;47.678;9.158;2022-09-01T02:56:17;96899.88;;;15.12;100.00
13434;BME280;6789;47.678;9.158;2022-09-01T03:01:30;96905.19;;;15.17;100.00
13434;BME280;6789;47.678;9.158;2022-09-01T03:06:24;96898.22;;;15.06;100.00
13434;BME280;6789;47.678;9.158;2022-09-01T03:11:17;96900.66;;;15.13;100.00
13434;BME280;6789;47.678;9.158;2022-09-01T03:16:10;96895.38;;;15.13;100.00
13434;BME280;6789;47.678;9.158;2022-09-01T03:21:03;96899.00;;;15.07;100.00
13434;BME280;6789;47.678;9.158;2022-09-01T03:25:56;96900.66;;;15.13;100.00
13434;BME280;6789;47.678;9.158;2022-09-01T03:30:51;96898.69;;;15.25;100.00
13434;BME280;6789;47.678;9.158;2022-09-01T03:35:44;96894.78;;;15.32;100.00
13434;BME280;6789;47.678;9.158;2022-09-01T03:40:36;96886.69;;;15.39;100.00
13434;BME280;6789;47.678;9.158;2022-09-01T03:45:29;96895.25;;;15.51;100.00
13434;BME280;6789;47.678;9.158;2022-09-01T03:50:25;96877.16;;;15.69;100.00
13434;BME280;6789;47.678;9.158;2022-09-01T03:55:22;96883.84;;;15.76;100.00
13434;BME280;6789;47.678;9.158;2022-09-01T04:00:15;96878.47;;;15.67;100.00
13434;BME280;6789;47.678;9.158;2022-09-01T04:05:28;96878.56;;;15.76;100.00
13434;BME280;6789;47.678;9.158;2022-09-01T04:10:51;96878.03;;;15.79;100.00
13434;BME280;6789;47.678;9.158;2022-09-01T04:15:58;96877.56;;;15.82;100.00
13434;BME280;6789;47.678;9.158;2022-09-01T04:21:04;96869.09;;;15.85;100.00
13434;BME280;6789;47.678;9.158;2022-09-01T04:26:12;96867.41;;;15.70;100.00
13434;BME280;6789;47.678;9.158;2022-09-01T04:31:25;96873.75;;;15.73;100.00
13434;BME280;6789;47.678;9.158;2022-09-01T04:36:31;96875.88;;;15.72;100.00
13434;BME280;6789;47.678;9.158;2022-09-01T04:41:42;96873.75;;;15.73;100.00
13434;BME280;6789;47.678;9.158;2022-09-01T04:46:50;96873.00;;;15.78;100.00
13434;BME280;6789;47.678;9.158;2022-09-01T04:51:56;96875.94;;;15.81;100.00
13434;BME280;6789;47.678;9.158;2022-09-01T04:57:03;96871.44;;;15.82;100.00
13434;BME280;6789;47.678;9.158;2022-09-01T05:02:12;96869.31;;;15.79;100.00
13434;BME280;6789;47.678;9.158;2022-09-01T05:07:17;96872.00;;;15.84;100.00
13434;BME280;6789;47.678;9.158;2022-09-01T05:12:14;96867.28;;;16.27;99.49
13434;BME280;6789;47.678;9.158;2022-09-01T05:17:21;96878.50;;;16.39;98.17
13434;BME280;6789;47.678;9.158;2022-09-01T05:22:26;96865.75;;;16.31;98.42
13434;BME280;6789;47.678;9.158;2022-09-01T05:27:33;96862.53;;;16.29;98.97
13434;BME280;6789;47.678;9.158;2022-09-01T05:32:39;96871.34;;;16.40;98.41
13434;BME280;6789;47.678;9.158;2022-09-01T05:37:45;96862.84;;;16.38;98.55
13434;BME280;6789;47.678;9.158;2022-09-01T05:42:52;96863.25;;;16.61;97.47
13434;BME280;6789;47.678;9.158;2022-09-01T05:48:01;96865.00;;;16.41;98.47
13434;BME280;6789;47.678;9.158;2022-09-01T05:53:09;96855.81;;;16.58;97.94
13434;BME280;6789;47.678;9.158;2022-09-01T05:58:24;96859.63;;;16.82;96.11
13434;BME280;6789;47.678;9.158;2022-09-01T06:03:31;96868.81;;;16.59;96.80
13434;BME280;6789;47.678;9.158;2022-09-01T06:08:37;96864.59;;;16.68;96.43
13434;BME280;6789;47.678;9.158;2022-09-01T06:13:52;96861.47;;;16.81;94.62
13434;BME280;6789;47.678;9.158;2022-09-01T06:19:02;96868.69;;;16.96;94.51
13434;BME280;6789;47.678;9.158;2022-09-01T06:24:17;96869.94;;;16.73;95.00
13434;BME280;6789;47.678;9.158;2022-09-01T06:29:23;96865.97;;;16.81;94.73
13434;BME280;6789;47.678;9.158;2022-09-01T06:34:29;96866.84;;;17.01;93.17
13434;BME280;6789;47.678;9.158;2022-09-01T06:39:38;96864.28;;;17.31;92.53
13434;BME280;6789;47.678;9.158;2022-09-01T06:44:46;96863.25;;;17.52;90.68
13434;BME280;6789;47.678;9.158;2022-09-01T06:49:53;96863.28;;;17.91;89.77
13434;BME280;6789;47.678;9.158;2022-09-01T06:55:03;96868.84;;;18.20;87.49
13434;BME280;6789;47.678;9.158;2022-09-01T07:00:13;96881.03;;;18.11;86.75
13434;BME280;6789;47.678;9.158;2022-09-01T07:05:26;96889.00;;;17.71;88.74
13434;BME280;6789;47.678;9.158;2022-09-01T07:10:32;96895.13;;;17.91;87.99
13434;BME280;6789;47.678;9.158;2022-09-01T07:15:41;96898.56;;;17.97;87.13
13434;BME280;6789;47.678;9.158;2022-09-01T07:20:53;96899.63;;;18.16;85.96
13434;BME280;6789;47.678;9.158;2022-09-01T07:26:12;96905.72;;;18.46;84.64
13434;BME280;6789;47.678;9.158;2022-09-01T07:31:40;96900.28;;;18.81;83.36
13434;BME280;6789;47.678;9.158;2022-09-01T07:36:48;96899.50;;;18.80;82.91
13434;BME280;6789;47.678;9.158;2022-09-01T07:42:06;96912.56;;;18.67;82.32
13434;BME280;6789;47.678;9.158;2022-09-01T07:47:16;96901.88;;;18.82;81.82
13434;BME280;6789;47.678;9.158;2022-09-01T07:52:24;96906.66;;;18.90;82.99
13434;BME280;6789;47.678;9.158;2022-09-01T07:57:30;96916.50;;;18.79;81.11
13434;BME280;6789;47.678;9.158;2022-09-01T08:02:37;96912.88;;;18.46;81.43
13434;BME280;6789;47.678;9.158;2022-09-01T08:07:44;96918.97;;;18.66;81.31
13434;BME280;6789;47.678;9.158;2022-09-01T08:13:04;96916.78;;;18.83;79.60
13434;BME280;6789;47.678;9.158;2022-09-01T08:18:13;96921.97;;;19.18;76.33
13434;BME280;6789;47.678;9.158;2022-09-01T08:23:30;96935.00;;;19.14;76.10
13434;BME280;6789;47.678;9.158;2022-09-01T08:28:42;96921.84;;;19.42;77.75
13434;BME280;6789;47.678;9.158;2022-09-01T08:33:53;96917.13;;;19.35;75.10
13434;BME280;6789;47.678;9.158;2022-09-01T08:38:59;96923.91;;;19.55;76.63
13434;BME280;6789;47.678;9.158;2022-09-01T08:44:29;96925.75;;;19.60;74.79
13434;BME280;6789;47.678;9.158;2022-09-01T08:49:47;96936.25;;;19.36;75.79
13434;BME280;6789;47.678;9.158;2022-09-01T08:55:11;96935.44;;;19.79;74.42
13434;BME280;6789;47.678;9.158;2022-09-01T09:00:24;96929.81;;;19.86;74.03
13434;BME280;6789;47.678;9.158;2022-09-01T09:16:53;96933.00;;;19.88;75.40
13434;BME280;6789;47.678;9.158;2022-09-01T09:22:05;96929.25;;;19.99;74.36
13434;BME280;6789;47.678;9.158;2022-09-01T09:33:36;96931.47;;;20.48;71.17
13434;BME280;6789;47.678;9.158;2022-09-01T09:39:17;96929.09;;;20.13;73.69
13434;BME280;6789;47.678;9.158;2022-09-01T09:44:30;96928.44;;;20.26;70.30
13434;BME280;6789;47.678;9.158;2022-09-01T09:49:39;96921.03;;;20.52;69.69
13434;BME280;6789;47.678;9.158;2022-09-01T09:55:28;96912.22;;;20.51;69.54
13434;BME280;6789;47.678;9.158;2022-09-01T10:01:06;96912.22;;;20.51;69.92
13434;BME280;6789;47.678;9.158;2022-09-01T10:06:43;96904.97;;;20.85;68.53
13434;BME280;6789;47.678;9.158;2022-09-01T10:17:02;96896.84;;;21.18;67.92
13434;BME280;6789;47.678;9.158;2022-09-01T10:22:10;96903.97;;;21.23;67.16
13434;BME280;6789;47.678;9.158;2022-09-01T10:27:41;96890.09;;;21.62;68.31
13434;BME280;6789;47.678;9.158;2022-09-01T10:33:03;96896.25;;;22.45;65.11
13434;BME280;6789;47.678;9.158;2022-09-01T10:38:28;96893.78;;;22.35;64.96
13434;BME280;6789;47.678;9.158;2022-09-01T10:43:49;96891.09;;;22.17;64.40
13434;BME280;6789;47.678;9.158;2022-09-01T10:48:57;96882.25;;;23.06;62.33
13434;BME280;6789;47.678;9.158;2022-09-01T11:06:07;96877.06;;;22.97;61.46
13434;BME280;6789;47.678;9.158;2022-09-01T11:11:34;96873.38;;;23.68;59.90
13434;BME280;6789;47.678;9.158;2022-09-01T11:22:36;96882.38;;;23.50;56.66
13434;BME280;6789;47.678;9.158;2022-09-01T11:33:11;96885.56;;;22.58;60.69
13434;BME280;6789;47.678;9.158;2022-09-01T11:38:23;96877.47;;;23.17;61.62
13434;BME280;6789;47.678;9.158;2022-09-01T11:43:30;96869.31;;;22.55;59.43
13434;BME280;6789;47.678;9.158;2022-09-01T11:48:48;96876.00;;;22.71;59.26
13434;BME280;6789;47.678;9.158;2022-09-01T11:53:58;96864.38;;;22.89;59.51
13434;BME280;6789;47.678;9.158;2022-09-01T11:59:34;96868.44;;;22.99;58.51
13434;BME280;6789;47.678;9.158;2022-09-01T12:04:42;96872.63;;;22.79;58.39
13434;BME280;6789;47.678;9.158;2022-09-01T12:10:14;96874.28;;;22.61;60.33
13434;BME280;6789;47.678;9.158;2022-09-01T12:15:26;96869.00;;;22.11;61.57
13434;BME280;6789;47.678;9.158;2022-09-01T12:20:38;96871.31;;;21.86;61.89
13434;BME280;6789;47.678;9.158;2022-09-01T12:26:12;96869.91;;;21.75;61.91
13434;BME280;6789;47.678;9.158;2022-09-01T12:31:31;96869.41;;;22.36;61.24
13434;BME280;6789;47.678;9.158;2022-09-01T12:36:41;96867.75;;;22.81;58.77
13434;BME280;6789;47.678;9.158;2022-09-01T12:42:26;96862.81;;;22.74;58.63
13434;BME280;6789;47.678;9.158;2022-09-01T12:47:48;96872.28;;;22.40;58.34
13434;BME280;6789;47.678;9.158;2022-09-01T12:53:00;96875.66;;;22.45;60.53
13434;BME280;6789;47.678;9.158;2022-09-01T12:58:09;96869.16;;;22.65;58.69
13434;BME280;6789;47.678;9.158;2022-09-01T13:03:22;96869.25;;;22.87;57.78
13434;BME280;6789;47.678;9.158;2022-09-01T13:08:35;96866.16;;;22.66;59.25
13434;BME280;6789;47.678;9.158;2022-09-01T13:13:40;96865.78;;;22.27;58.74
13434;BME280;6789;47.678;9.158;2022-09-01T13:18:47;96860.19;;;22.29;61.20
13434;BME280;6789;47.678;9.158;2022-09-01T13:24:00;96862.41;;;22.54;58.63
13434;BME280;6789;47.678;9.158;2022-09-01T13:29:19;96862.19;;;22.37;57.88
13434;BME280;6789;47.678;9.158;2022-09-01T13:34:28;96856.94;;;22.45;58.83
13434;BME280;6789;47.678;9.158;2022-09-01T13:39:46;96849.34;;;22.66;59.24
13434;BME280;6789;47.678;9.158;2022-09-01T13:44:54;96844.38;;;22.73;57.58
13434;BME280;6789;47.678;9.158;2022-09-01T13:50:00;96839.84;;;22.60;55.72
13434;BME280;6789;47.678;9.158;2022-09-01T13:55:09;96836.25;;;22.51;57.47
13434;BME280;6789;47.678;9.158;2022-09-01T14:00:25;96834.66;;;22.36;59.72
13434;BME280;6789;47.678;9.158;2022-09-01T14:05:42;96839.72;;;22.78;57.24
13434;BME280;6789;47.678;9.158;2022-09-01T14:11:00;96826.97;;;22.75;56.62
13434;BME280;6789;47.678;9.158;2022-09-01T14:16:12;96822.78;;;22.83;57.35
13434;BME280;6789;47.678;9.158;2022-09-01T14:21:21;96841.31;;;22.79;56.46
13434;BME280;6789;47.678;9.158;2022-09-01T14:26:27;96822.59;;;22.66;55.38
13434;BME280;6789;47.678;9.158;2022-09-01T14:31:45;96820.41;;;22.81;56.05
13434;BME280;6789;47.678;9.158;2022-09-01T14:37:26;96822.88;;;22.51;55.99
13434;BME280;6789;47.678;9.158;2022-09-01T14:42:54;96827.69;;;22.22;56.88
13434;BME280;6789;47.678;9.158;2022-09-01T14:48:00;96832.03;;;22.18;55.59
13434;BME280;6789;47.678;9.158;2022-09-01T14:53:08;96824.84;;;22.45;56.33
13434;BME280;6789;47.678;9.158;2022-09-01T15:03:33;96819.00;;;22.30;55.27
13434;BME280;6789;47.678;9.158;2022-09-01T15:08:42;96813.59;;;22.35;55.80
13434;BME280;6789;47.678;9.158;2022-09-01T15:14:12;96811.22;;;22.47;56.35
13434;BME280;6789;47.678;9.158;2022-09-01T15:24:48;96811.09;;;22.52;56.08
13434;BME280;6789;47.678;9.158;2022-09-01T15:29:58;96805.47;;;22.40;56.84
13434;BME280;6789;47.678;9.158;2022-09-01T15:35:05;96792.47;;;22.33;57.88
13434;BME280;6789;47.678;9.158;2022-09-01T15:40:16;96794.19;;;22.11;58.82
13434;BME280;6789;47.678;9.158;2022-09-01T15:46:26;96793.53;;;21.74;59.82
13434;BME280;6789;47.678;9.158;2022-09-01T15:51:50;96787.38;;;21.73;59.93
13434;BME280;6789;47.678;9.158;2022-09-01T15:57:16;96791.75;;;21.83;59.05
13434;BME280;6789;47.678;9.158;2022-09-01T16:02:24;96797.38;;;22.13;57.29
13434;BME280;6789;47.678;9.158;2022-09-01T16:07:32;96796.94;;;21.79;58.49
13434;BME280;6789;47.678;9.158;2022-09-01T16:12:44;96798.56;;;21.75;59.43
13434;BME280;6789;47.678;9.158;2022-09-01T16:25:16;96789.81;;;21.88;59.72
13434;BME280;6789;47.678;9.158;2022-09-01T16:31:27;96791.41;;;21.89;58.60
13434;BME280;6789;47.678;9.158;2022-09-01T16:43:36;96781.56;;;21.71;58.25
13434;BME280;6789;47.678;9.158;2022-09-01T16:49:35;96783.97;;;21.86;57.92
13434;BME280;6789;47.678;9.158;2022-09-01T16:56:00;96782.72;;;21.65;57.24
13434;BME280;6789;47.678;9.158;2022-09-01T17:07:12;96780.13;;;21.42;57.62
13434;BME280;6789;47.678;9.158;2022-09-01T17:12:42;96776.13;;;21.26;58.27
13434;BME280;6789;47.678;9.158;2022-09-01T17:24:54;96769.88;;;20.99;59.54
13434;BME280;6789;47.678;9.158;2022-09-01T17:30:56;96772.38;;;20.90;60.67
13434;BME280;6789;47.678;9.158;2022-09-01T17:37:11;96778.50;;;20.68;61.30
13434;BME280;6789;47.678;9.158;2022-09-01T17:42:29;96783.97;;;20.81;61.16
13434;BME280;6789;47.678;9.158;2022-09-01T17:48:01;96782.63;;;20.60;61.83
13434;BME280;6789;47.678;9.158;2022-09-01T17:53:38;96795.72;;;20.33;63.60
13434;BME280;6789;47.678;9.158;2022-09-01T17:59:33;96780.34;;;20.49;63.86
13434;BME280;6789;47.678;9.158;2022-09-01T18:10:49;96785.50;;;20.17;65.88
13434;BME280;6789;47.678;9.158;2022-09-01T18:15:56;96789.06;;;20.08;65.95
13434;BME280;6789;47.678;9.158;2022-09-01T18:20:58;96793.47;;;19.89;67.47
13434;BME280;6789;47.678;9.158;2022-09-01T18:26:02;96794.34;;;19.84;66.94
13434;BME280;6789;47.678;9.158;2022-09-01T18:54:28;96811.78;;;19.34;70.13
13434;BME280;6789;47.678;9.158;2022-09-01T19:00:13;96803.63;;;19.20;70.73
13434;BME280;6789;47.678;9.158;2022-09-01T19:05:57;96808.47;;;19.08;71.76
13434;BME280;6789;47.678;9.158;2022-09-01T19:12:11;96815.38;;;19.09;71.93
13434;BME280;6789;47.678;9.158;2022-09-01T19:40:12;96808.13;;;18.71;75.44
13434;BME280;6789;47.678;9.158;2022-09-01T19:46:03;96802.06;;;18.66;75.51
13434;BME280;6789;47.678;9.158;2022-09-01T19:51:27;96796.50;;;18.53;76.72
13434;BME280;6789;47.678;9.158;2022-09-01T20:03:08;96811.97;;;18.41;76.99
13434;BME280;6789;47.678;9.158;2022-09-01T20:08:48;96807.22;;;18.28;77.85
13434;BME280;6789;47.678;9.158;2022-09-01T20:15:08;96802.44;;;18.15;78.09
13434;BME280;6789;47.678;9.158;2022-09-01T20:20:47;96802.19;;;18.06;78.24
13434;BME280;6789;47.678;9.158;2022-09-01T20:26:22;96791.59;;;18.01;78.64
13434;BME280;6789;47.678;9.158;2022-09-01T20:32:03;96785.50;;;17.96;78.83
13434;BME280;6789;47.678;9.158;2022-09-01T20:37:32;96795.59;;;17.89;78.77
13434;BME280;6789;47.678;9.158;2022-09-01T20:43:17;96799.84;;;17.90;79.05
13434;BME280;6789;47.678;9.158;2022-09-01T20:48:42;96784.72;;;17.81;78.98
13434;BME280;6789;47.678;9.158;2022-09-01T20:54:31;96783.97;;;17.75;79.63
13434;BME280;6789;47.678;9.158;2022-09-01T21:00:23;96790.31;;;17.74;79.12
13434;BME280;6789;47.678;9.158;2022-09-01T21:06:43;96789.28;;;17.70;79.17
13434;BME280;6789;47.678;9.158;2022-09-01T21:12:56;96778.66;;;17.65;79.14
13434;BME280;6789;47.678;9.158;2022-09-01T21:24:17;96774.97;;;17.51;78.73
13434;BME280;6789;47.678;9.158;2022-09-01T21:30:08;96774.97;;;17.51;78.37
13434;BME280;6789;47.678;9.158;2022-09-01T21:35:46;96771.25;;;17.42;78.89
13434;BME280;6789;47.678;9.158;2022-09-01T21:41:01;96777.06;;;17.34;79.14
13434;BME280;6789;47.678;9.158;2022-09-01T21:46:19;96770.97;;;17.34;78.97
13434;BME280;6789;47.678;9.158;2022-09-01T21:51:26;96778.63;;;17.25;79.32
13434;BME280;6789;47.678;9.158;2022-09-01T21:56:50;96763.78;;;17.24;79.49
13434;BME280;6789;47.678;9.158;2022-09-01T22:02:09;96759.00;;;17.16;79.50
13434;BME280;6789;47.678;9.158;2022-09-01T22:07:16;96756.34;;;17.12;79.47
13434;BME280;6789;47.678;9.158;2022-09-01T22:12:29;96755.81;;;17.10;79.48
13434;BME280;6789;47.678;9.158;2022-09-01T22:17:36;96762.16;;;17.04;79.38
13434;BME280;6789;47.678;9.158;2022-09-01T22:22:52;96762.66;;;16.91;79.85
13434;BME280;6789;47.678;9.158;2022-09-01T22:27:49;96761.09;;;16.95;79.29
13434;BME280;6789;47.678;9.158;2022-09-01T22:33:02;96755.00;;;16.84;79.27
13434;BME280;6789;47.678;9.158;2022-09-01T22:38:11;96752.88;;;16.86;78.98
13434;BME280;6789;47.678;9.158;2022-09-01T22:43:17;96758.41;;;16.80;79.14
13434;BME280;6789;47.678;9.158;2022-09-01T22:48:26;96756.03;;;16.73;79.57
13434;BME280;6789;47.678;9.158;2022-09-01T22:53:52;96743.84;;;16.67;79.81
13434;BME280;6789;47.678;9.158;2022-09-01T22:59:05;96754.94;;;16.59;79.53
13434;BME280;6789;47.678;9.158;2022-09-01T23:04:15;96758.06;;;16.46;80.33
13434;BME280;6789;47.678;9.158;2022-09-01T23:09:07;96757.81;;;16.48;80.26
13434;BME280;6789;47.678;9.158;2022-09-01T23:13:59;96754.34;;;16.43;80.44
13434;BME280;6789;47.678;9.158;2022-09-01T23:18:52;96742.94;;;16.37;80.51
13434;BME280;6789;47.678;9.158;2022-09-01T23:23:44;96738.69;;;16.36;80.62
13434;BME280;6789;47.678;9.158;2022-09-01T23:28:49;96743.97;;;16.31;81.24
13434;BME280;6789;47.678;9.158;2022-09-01T23:33:42;96736.50;;;16.23;80.91
13434;BME280;6789;47.678;9.158;2022-09-01T23:38:35;96736.22;;;16.20;81.34
13434;BME280;6789;47.678;9.158;2022-09-01T23:43:27;96737.56;;;16.22;81.23
13434;BME280;6789;47.678;9.158;2022-09-01T23:48:19;96728.53;;;16.13;82.26
13434;BME280;6789;47.678;9.158;2022-09-01T23:53:29;96729.09;;;16.15;81.86
13434;BME280;6789;47.678;9.158;2022-09-01T23:58:24;96730.91;;;16.10;81.72
